Time;durP1;ratioP1;P1;durP2;ratioP2;P2;SDS_P1;SDS_P2;PMS_P1;PMS_P2;Temp;Humidity;BMP_temperature;BMP_pressure;BME280_temperature;BME280_humidity;BME280_pressure;Samples;Min_cycle;Max_cycle;Signal;HPM_P1;HPM_P2
2021/12/31 00:02:18;;;;;;;;;;;;;;;;;;5059608;28;20288;-68
2021/12/31 00:04:44;;;;;;;;;;;;;;;;;;5075807;28;19991;-67
2021/12/31 00:07:10;;;;;;;;;;;;;;;;;;5071759;28;19909;-68
2021/12/31 00:09:35;;;;;;;;;;;;;;;;;;5068234;28;20383;-68
2021/12/31 00:12:03;;;;;;;;;;;;;;;;;;5061356;28;19915;-68
2021/12/31 00:14:29;;;;;;;;;;;;;;;;;;5064383;28;19913;-68
2021/12/31 00:16:55;;;;;;;;;;;;;;;;;;5064975;28;19912;-68
2021/12/31 00:19:22;;;;;;;;;;;;;;;;;;5069590;28;19915;-68
2021/12/31 00:21:49;;;;;;;;;;;;;;;;;;5078663;28;19961;-68
2021/12/31 00:24:15;;;;;;;;;;;;;;;;;;5066901;28;20013;-68
2021/12/31 00:26:41;;;;;;;;;;;;;;;;;;5072320;28;19950;-68
2021/12/31 00:29:07;;;;;;;;;;;;;;;;;;5069688;28;19908;-68
2021/12/31 00:31:33;;;;;;;;;;;;;;;;;;5066382;28;19916;-68
2021/12/31 00:33:59;;;;;;;;;;;;;;;;;;5075788;28;19912;-67
2021/12/31 00:36:25;;;;;;;;;;;;;;;;;;5072853;28;20364;-68
2021/12/31 00:38:51;;;;;;;;;;;;;;;;;;5066874;28;19909;-68
2021/12/31 00:41:16;;;;;;;;;;;13.20;99.90;;;;;;5081005;28;19935;-68
2021/12/31 00:43:42;;;;;;;;;;;;;;;;;;5061433;28;19913;-68
2021/12/31 00:46:08;;;;;;;;;;;;;;;;;;5075050;28;19931;-68
2021/12/31 00:48:34;;;;;;;;;;;13.20;99.90;;;;;;5076054;28;19957;-68
2021/12/31 00:50:59;;;;;;;;;;;13.20;99.90;;;;;;5069991;28;19909;-67
2021/12/31 00:53:25;;;;;;;;;;;13.20;99.90;;;;;;5070409;28;19923;-68
2021/12/31 00:55:50;;;;;;;;;;;13.20;99.90;;;;;;5071218;28;20364;-68
2021/12/31 00:58:16;;;;;;;;;;;;;;;;;;5066918;28;19936;-68
2021/12/31 01:00:42;;;;;;;;;;;;;;;;;;5072303;28;19908;-68
2021/12/31 01:03:08;;;;;;;;;;;;;;;;;;5067813;28;20379;-68
2021/12/31 01:05:34;;;;;;;;;;;13.10;99.90;;;;;;5064021;28;19944;-68
2021/12/31 01:07:59;;;;;;;;;;;13.10;99.90;;;;;;5063149;28;19962;-69
2021/12/31 01:10:27;;;;;;;;;;;13.10;99.90;;;;;;5062625;28;20339;-68
2021/12/31 01:12:53;;;;;;;;;;;13.00;99.90;;;;;;5061431;28;19908;-68
2021/12/31 01:15:41;;;;;;;;;;;13.00;99.90;;;;;;5069093;28;19913;-68
2021/12/31 01:20:35;;;;;;;;;;;13.10;99.90;;;;;;5059852;28;20331;-68
2021/12/31 01:23:01;;;;;;;;;;;13.10;99.90;;;;;;5060074;28;19961;-68
2021/12/31 01:25:26;;;;;;;;;;;13.10;99.90;;;;;;5062330;28;19908;-68
2021/12/31 01:27:52;;;;;;;;;;;;;;;;;;5073103;28;19915;-68
2021/12/31 01:30:18;;;;;;;;;;;;;;;;;;5055395;28;20006;-68
2021/12/31 01:32:45;;;;;;;;;;;;;;;;;;5077111;28;20384;-68
2021/12/31 01:35:11;;;;;;;;;;;;;;;;;;5063354;28;19909;-68
2021/12/31 01:37:37;;;;;;;;;;;;;;;;;;5059125;28;19931;-67
2021/12/31 01:40:02;;;;;;;;;;;;;;;;;;5060600;28;19949;-68
2021/12/31 01:42:32;;;;;;;;;;;;;;;;;;5065704;28;20413;-68
2021/12/31 01:45:02;;;;;;;;;;;;;;;;;;5059647;28;19991;-68
2021/12/31 01:47:45;;;;;;;;;;;;;;;;;;5064674;28;19920;-68
2021/12/31 01:50:11;;;;;;;;;;;;;;;;;;5061348;28;20361;-68
2021/12/31 01:52:40;;;;;;;;;;;;;;;;;;5067076;28;19908;-68
2021/12/31 01:55:05;;;;;;;;;;;;;;;;;;5059365;28;20358;-68
2021/12/31 01:57:32;;;;;;;;;;;;;;;;;;5063390;28;19999;-68
2021/12/31 01:59:58;;;;;;;;;;;;;;;;;;5068027;28;19935;-68
2021/12/31 02:02:24;;;;;;;;;;;;;;;;;;5061222;28;19908;-68
2021/12/31 02:04:49;;;;;;;;;;;;;;;;;;5071572;28;19912;-68
2021/12/31 02:07:15;;;;;;;;;;;;;;;;;;5058344;28;20373;-68
2021/12/31 02:09:48;;;;;;;;;;;;;;;;;;5063392;28;19908;-68
2021/12/31 02:12:14;;;;;;;;;;;;;;;;;;5062270;28;19909;-67
2021/12/31 02:14:40;;;;;;;;;;;;;;;;;;5066717;28;19995;-68
2021/12/31 02:17:08;;;;;;;;;;;;;;;;;;5063058;28;19916;-68
2021/12/31 02:19:33;;;;;;;;;;;;;;;;;;5062339;28;20372;-68
2021/12/31 02:22:00;;;;;;;;;;;;;;;;;;5059144;28;19908;-68
2021/12/31 02:24:26;;;;;;;;;;;;;;;;;;5062513;28;19963;-68
2021/12/31 02:26:52;;;;;;;;;;;;;;;;;;5060757;28;19952;-68
2021/12/31 02:29:18;;;;;;;;;;;;;;;;;;5065825;28;19944;-68
2021/12/31 02:31:44;;;;;;;;;;;;;;;;;;5080411;28;19936;-68
2021/12/31 02:34:10;;;;;;;;;;;;;;;;;;5064895;28;20439;-67
2021/12/31 02:36:36;;;;;;;;;;;;;;;;;;5061605;28;19908;-68
2021/12/31 02:39:01;;;;;;;;;;;;;;;;;;5064612;28;20407;-68
2021/12/31 02:41:28;;;;;;;;;;;;;;;;;;5063435;28;19924;-68
2021/12/31 02:43:53;;;;;;;;;;;;;;;;;;5064744;28;19912;-68
2021/12/31 02:46:22;;;;;;;;;;;;;;;;;;5055260;28;20399;-68
2021/12/31 02:48:56;;;;;;;;;;;;;;;;;;5061199;28;19909;-68
2021/12/31 02:51:22;;;;;;;;;;;;;;;;;;5062140;28;19909;-68
2021/12/31 02:53:47;;;;;;;;;;;;;;;;;;5066179;28;19909;-68
2021/12/31 02:56:13;;;;;;;;;;;;;;;;;;5059228;28;19909;-69
2021/12/31 02:58:39;;;;;;;;;;;;;;;;;;5067808;28;19970;-68
2021/12/31 03:01:05;;;;;;;;;;;;;;;;;;5060209;28;19908;-68
2021/12/31 03:03:31;;;;;;;;;;;;;;;;;;5063713;28;19919;-68
2021/12/31 03:05:57;;;;;;;;;;;;;;;;;;5057559;28;20532;-68
2021/12/31 03:08:23;;;;;;;;;;;;;;;;;;5054497;28;19954;-68
2021/12/31 03:10:49;;;;;;;;;;;;;;;;;;5061680;28;19915;-68
2021/12/31 03:13:15;;;;;;;;;;;;;;;;;;5063804;28;19995;-68
2021/12/31 03:15:41;;;;;;;;;;;;;;;;;;5060326;28;19916;-68
2021/12/31 03:18:07;;;;;;;;;;;;;;;;;;5059517;28;19947;-68
2021/12/31 03:20:36;;;;;;;;;;;;;;;;;;5059609;28;19940;-68
2021/12/31 03:23:02;;;;;;;;;;;;;;;;;;5063210;28;19974;-68
2021/12/31 03:25:28;;;;;;;;;;;;;;;;;;5060706;28;19912;-68
2021/12/31 03:27:54;;;;;;;;;;;;;;;;;;5063132;28;20003;-68
2021/12/31 03:30:20;;;;;;;;;;;;;;;;;;5060517;28;19908;-68
2021/12/31 03:32:46;;;;;;;;;;;;;;;;;;5066191;28;19948;-68
2021/12/31 03:35:14;;;;;;;;;;;;;;;;;;5057415;28;19955;-68
2021/12/31 03:37:40;;;;;;;;;;;;;;;;;;5058536;28;20305;-68
2021/12/31 03:40:06;;;;;;;;;;;;;;;;;;5060975;28;19913;-68
2021/12/31 03:42:32;;;;;;;;;;;12.40;99.90;;;;;;5063057;28;20287;-68
2021/12/31 03:44:58;;;;;;;;;;;;;;;;;;5062369;28;19915;-68
2021/12/31 03:47:23;;;;;;;;;;;12.40;99.90;;;;;;5057157;28;20293;-68
2021/12/31 03:49:48;;;;;;;;;;;12.40;99.90;;;;;;5060604;28;19991;-69
2021/12/31 03:52:14;;;;;;;;;;;;;;;;;;5058097;28;19931;-68
2021/12/31 03:54:40;;;;;;;;;;;;;;;;;;5059509;28;19912;-67
2021/12/31 03:57:06;;;;;;;;;;;;;;;;;;5060717;28;19912;-67
2021/12/31 03:59:32;;;;;;;;;;;12.40;99.90;;;;;;5052603;28;19946;-68
2021/12/31 04:01:57;;;;;;;;;;;12.40;99.90;;;;;;5057741;28;20000;-68
2021/12/31 04:04:23;;;;;;;;;;;12.40;99.90;;;;;;5063071;28;19916;-68
2021/12/31 04:06:48;;;;;;;;;;;12.40;99.90;;;;;;5063239;28;19913;-68
2021/12/31 04:09:14;;;;;;;;;;;;;;;;;;5063825;28;19915;-67
2021/12/31 04:11:39;;;;;;;;;;;12.60;99.90;;;;;;5058117;28;19909;-68
2021/12/31 04:14:05;;;;;;;;;;;12.30;99.90;;;;;;5064170;28;20343;-68
2021/12/31 04:16:30;;;;;;;;;;;12.40;99.90;;;;;;5059434;28;19908;-68
2021/12/31 04:18:56;;;;;;;;;;;12.30;99.90;;;;;;5077273;28;19915;-68
2021/12/31 04:21:23;;;;;;;;;;;12.30;99.90;;;;;;5063263;28;19909;-68
2021/12/31 04:24:04;;;;;;;;;;;12.30;99.90;;;;;;5062341;28;19916;-68
2021/12/31 04:26:30;;;;;;;;;;;12.20;99.90;;;;;;5060751;28;19991;-68
2021/12/31 04:28:55;;;;;;;;;;;12.20;99.90;;;;;;5056720;28;20003;-68
2021/12/31 04:31:21;;;;;;;;;;;12.20;99.90;;;;;;5064534;28;19947;-68
2021/12/31 04:33:47;;;;;;;;;;;12.20;99.90;;;;;;5061858;28;19916;-68
2021/12/31 04:36:12;;;;;;;;;;;12.20;99.90;;;;;;5057963;28;19991;-68
2021/12/31 04:38:38;;;;;;;;;;;12.20;99.90;;;;;;5058993;28;20300;-68
2021/12/31 04:41:03;;;;;;;;;;;12.10;99.90;;;;;;5054601;28;19908;-68
2021/12/31 04:43:29;;;;;;;;;;;12.00;99.90;;;;;;5065286;28;19924;-68
2021/12/31 04:45:54;;;;;;;;;;;12.00;99.90;;;;;;5076012;28;19920;-68
2021/12/31 04:48:20;;;;;;;;;;;12.00;99.90;;;;;;5061125;28;21454;-68
2021/12/31 04:50:45;;;;;;;;;;;11.90;99.90;;;;;;5058777;28;19912;-67
2021/12/31 04:53:11;;;;;;;;;;;11.90;99.90;;;;;;5060281;28;19908;-68
2021/12/31 04:55:36;;;;;;;;;;;11.90;99.90;;;;;;5058709;28;19916;-68
2021/12/31 04:58:02;;;;;;;;;;;11.90;99.90;;;;;;5057318;28;19944;-68
2021/12/31 05:00:27;;;;;;;;;;;11.90;99.90;;;;;;5059006;28;20596;-68
2021/12/31 05:02:53;;;;;;;;;;;11.80;99.90;;;;;;5056361;28;19946;-68
2021/12/31 05:05:18;;;;;;;;;;;11.80;99.90;;;;;;5066851;28;19919;-68
2021/12/31 05:07:44;;;;;;;;;;;11.80;99.90;;;;;;5068342;28;20399;-68
2021/12/31 05:10:10;;;;;;;;;;;11.70;99.90;;;;;;5052491;28;19991;-68
2021/12/31 05:12:37;;;;;;;;;;;11.70;99.90;;;;;;5063481;28;19909;-68
2021/12/31 05:15:06;;;;;;;;;;;11.70;99.90;;;;;;5058108;28;19916;-68
2021/12/31 05:17:32;;;;;;;;;;;11.70;99.90;;;;;;5059529;28;19908;-68
2021/12/31 05:19:57;;;;;;;;;;;11.70;99.90;;;;;;5065510;28;19957;-68
2021/12/31 05:22:23;;;;;;;;;;;11.70;99.90;;;;;;5066312;28;20369;-68
2021/12/31 05:24:48;;;;;;;;;;;11.70;99.90;;;;;;5067783;28;20109;-68
2021/12/31 05:27:14;;;;;;;;;;;11.70;99.90;;;;;;5064199;28;19908;-68
2021/12/31 05:29:39;;;;;;;;;;;11.70;99.90;;;;;;5061804;28;19915;-68
2021/12/31 05:32:05;;;;;;;;;;;11.70;99.90;;;;;;5065798;28;19958;-69
2021/12/31 05:34:30;;;;;;;;;;;11.70;99.90;;;;;;5072314;28;20014;-68
2021/12/31 05:36:56;;;;;;;;;;;11.80;99.90;;;;;;5069545;28;20041;-69
2021/12/31 05:39:21;;;;;;;;;;;11.80;99.90;;;;;;5056526;28;19904;-69
2021/12/31 05:41:47;;;;;;;;;;;11.80;99.90;;;;;;5055753;28;19961;-68
2021/12/31 05:44:12;;;;;;;;;;;11.90;99.90;;;;;;5067805;28;19913;-68
2021/12/31 05:46:40;;;;;;;;;;;11.80;99.90;;;;;;5061026;28;19951;-68
2021/12/31 05:49:05;;;;;;;;;;;11.80;99.90;;;;;;5076288;28;20276;-69
2021/12/31 05:51:31;;;;;;;;;;;11.80;99.90;;;;;;5064353;28;19909;-68
2021/12/31 05:53:57;;;;;;;;;;;11.80;99.90;;;;;;5069378;28;19923;-68
2021/12/31 05:56:22;;;;;;;;;;;11.80;99.90;;;;;;5063366;28;19915;-68
2021/12/31 05:58:48;;;;;;;;;;;11.70;99.90;;;;;;5063613;28;19912;-68
2021/12/31 06:01:13;;;;;;;;;;;11.70;99.90;;;;;;5068488;28;19909;-68
2021/12/31 06:03:39;;;;;;;;;;;11.60;99.90;;;;;;5058641;28;19963;-68
2021/12/31 06:06:04;;;;;;;;;;;11.70;99.90;;;;;;5061374;28;20053;-69
2021/12/31 06:08:30;;;;;;;;;;;11.70;99.90;;;;;;5068184;28;19912;-68
2021/12/31 06:10:56;;;;;;;;;;;11.70;99.90;;;;;;5058517;28;19916;-68
2021/12/31 06:13:21;;;;;;;;;;;11.70;99.90;;;;;;5069222;28;20364;-68
2021/12/31 06:15:49;;;;;;;;;;;11.80;99.90;;;;;;5069762;28;19924;-69
2021/12/31 06:18:14;;;;;;;;;;;11.70;99.90;;;;;;5060428;28;19908;-68
2021/12/31 06:20:43;;;;;;;;;;;11.80;99.90;;;;;;5059664;28;19912;-68
2021/12/31 06:23:08;;;;;;;;;;;11.80;99.90;;;;;;5062090;28;19960;-70
2021/12/31 06:25:34;;;;;;;;;;;11.80;99.90;;;;;;5064188;28;20666;-67
2021/12/31 06:28:01;;;;;;;;;;;11.70;99.90;;;;;;5061993;28;20377;-68
2021/12/31 06:30:27;;;;;;;;;;;11.70;99.90;;;;;;5062371;28;19938;-67
2021/12/31 06:32:52;;;;;;;;;;;11.70;99.90;;;;;;5066435;28;19916;-68
2021/12/31 06:35:18;;;;;;;;;;;11.70;99.90;;;;;;5064207;28;20289;-68
2021/12/31 06:37:43;;;;;;;;;;;11.70;99.90;;;;;;5070286;28;19908;-67
2021/12/31 06:40:11;;;;;;;;;;;11.70;99.90;;;;;;5064454;28;19916;-68
2021/12/31 06:42:36;;;;;;;;;;;11.60;99.90;;;;;;5064924;28;19978;-68
2021/12/31 06:45:02;;;;;;;;;;;11.60;99.90;;;;;;5061462;28;19908;-68
2021/12/31 06:47:28;;;;;;;;;;;11.50;99.90;;;;;;5063768;28;19951;-68
2021/12/31 06:49:53;;;;;;;;;;;11.50;99.90;;;;;;5069773;28;19948;-68
2021/12/31 06:52:19;;;;;;;;;;;11.50;99.90;;;;;;5062384;28;20376;-68
2021/12/31 06:54:44;;;;;;;;;;;11.50;99.90;;;;;;5058615;28;19955;-68
2021/12/31 06:57:10;;;;;;;;;;;11.50;99.90;;;;;;5063603;28;19935;-67
2021/12/31 06:59:35;;;;;;;;;;;11.60;99.90;;;;;;5066101;28;19919;-67
2021/12/31 07:02:01;;;;;;;;;;;11.60;99.90;;;;;;5063652;28;20301;-68
2021/12/31 07:04:26;;;;;;;;;;;11.60;99.90;;;;;;5055033;28;19927;-68
2021/12/31 07:06:52;;;;;;;;;;;11.60;99.90;;;;;;5068097;28;19908;-68
2021/12/31 07:09:17;;;;;;;;;;;11.50;99.90;;;;;;5066202;28;19915;-68
2021/12/31 07:11:42;;;;;;;;;;;11.50;99.90;;;;;;5067962;28;19913;-67
2021/12/31 07:14:08;;;;;;;;;;;11.50;99.90;;;;;;5064367;28;19931;-68
2021/12/31 07:16:33;;;;;;;;;;;11.50;99.90;;;;;;5063529;28;19991;-68
2021/12/31 07:18:59;;;;;;;;;;;11.40;99.90;;;;;;5060054;28;20320;-68
2021/12/31 07:21:25;;;;;;;;;;;11.40;99.90;;;;;;5060599;28;19912;-68
2021/12/31 07:23:50;;;;;;;;;;;11.40;99.90;;;;;;5055144;28;19924;-68
2021/12/31 07:26:16;;;;;;;;;;;11.50;99.90;;;;;;5054595;28;19908;-67
2021/12/31 07:28:41;;;;;;;;;;;11.50;99.90;;;;;;5057057;28;19994;-68
2021/12/31 07:31:11;;;;;;;;;;;11.40;99.90;;;;;;5062818;28;19909;-67
2021/12/31 07:33:37;;;;;;;;;;;11.40;99.90;;;;;;5067187;28;19909;-67
2021/12/31 07:36:02;;;;;;;;;;;11.40;99.90;;;;;;5062248;28;19908;-67
2021/12/31 07:38:33;;;;;;;;;;;11.40;99.90;;;;;;5059212;28;20060;-68
2021/12/31 07:40:58;;;;;;;;;;;11.40;99.90;;;;;;5063133;28;19908;-68
2021/12/31 07:43:24;;;;;;;;;;;11.40;99.90;;;;;;5057768;28;19927;-68
2021/12/31 07:48:26;;;;;;;;;;;11.50;99.90;;;;;;5019520;22;19925;-67
2021/12/31 07:50:52;;;;;;;;;;;11.50;99.90;;;;;;4988863;28;19917;-68
2021/12/31 07:53:18;;;;;;;;;;;11.60;99.90;;;;;;5003875;28;19917;-67
2021/12/31 07:55:43;;;;;;;;;;;11.60;99.90;;;;;;5002979;28;19949;-68
2021/12/31 07:58:09;;;;;;;;;;;11.60;99.90;;;;;;5002848;28;20299;-68
2021/12/31 08:00:35;;;;;;;;;;;11.70;99.90;;;;;;5002441;28;20012;-67
2021/12/31 08:03:01;;;;;;;;;;;11.60;99.90;;;;;;5007524;28;19913;-67
2021/12/31 08:05:27;;;;;;;;;;;11.60;99.90;;;;;;5003927;28;19910;-67
2021/12/31 08:07:53;;;;;;;;;;;11.60;99.90;;;;;;5006101;28;19909;-68
2021/12/31 08:10:19;;;;;;;;;;;11.60;99.90;;;;;;5007020;28;19982;-68
2021/12/31 08:12:44;;;;;;;;;;;11.50;99.90;;;;;;5004631;28;19924;-67
2021/12/31 08:15:10;;;;;;;;;;;11.50;99.90;;;;;;5002201;28;20430;-67
2021/12/31 08:17:35;;;;;;;;;;;11.50;99.90;;;;;;5001041;28;20291;-68
2021/12/31 08:20:01;;;;;;;;;;;11.50;99.90;;;;;;4985190;28;19924;-68
2021/12/31 08:22:26;;;;;;;;;;;11.50;99.90;;;;;;5004682;28;19917;-68
2021/12/31 08:24:52;;;;;;;;;;;11.50;99.90;;;;;;4987357;28;19960;-67
2021/12/31 08:27:17;;;;;;;;;;;11.50;99.90;;;;;;5000576;28;20435;-67
2021/12/31 08:29:43;;;;;;;;;;;11.50;99.90;;;;;;4986632;28;19913;-68
2021/12/31 08:32:08;;;;;;;;;;;11.50;99.90;;;;;;5002939;28;19909;-67
2021/12/31 08:34:34;;;;;;;;;;;11.50;99.90;;;;;;5004718;28;20047;-67
2021/12/31 08:36:59;;;;;;;;;;;11.50;99.90;;;;;;5002413;28;19975;-67
2021/12/31 08:39:25;;;;;;;;;;;11.50;99.90;;;;;;5001979;28;19909;-67
2021/12/31 08:41:51;;;;;;;;;;;11.50;99.90;;;;;;5001673;28;19909;-67
2021/12/31 08:44:16;;;;;;;;;;;11.50;99.90;;;;;;5010640;28;19968;-68
2021/12/31 08:46:42;;;;;;;;;;;11.50;99.90;;;;;;5014044;28;20000;-68
2021/12/31 08:49:08;;;;;;;;;;;11.40;99.90;;;;;;5002847;28;20182;-67
2021/12/31 08:51:34;;;;;;;;;;;11.40;99.90;;;;;;5008237;28;20381;-67
2021/12/31 08:53:59;;;;;;;;;;;11.40;99.90;;;;;;5010040;28;19909;-69
2021/12/31 08:56:25;;;;;;;;;;;11.50;99.90;;;;;;5012039;28;19948;-67
2021/12/31 08:58:50;;;;;;;;;;;11.50;99.90;;;;;;5004608;28;19917;-68
2021/12/31 09:01:16;;;;;;;;;;;11.50;99.90;;;;;;5009236;28;19995;-68
2021/12/31 09:03:41;;;;;;;;;;;11.50;99.90;;;;;;5004976;28;19920;-68
2021/12/31 09:06:08;;;;;;;;;;;11.60;99.90;;;;;;5004692;28;19944;-68
2021/12/31 09:08:34;;;;;;;;;;;11.60;99.90;;;;;;5003029;28;19910;-68
2021/12/31 09:11:00;;;;;;;;;;;11.50;99.90;;;;;;4999232;28;19916;-68
2021/12/31 09:13:27;;;;;;;;;;;11.50;99.90;;;;;;4985585;28;19909;-68
2021/12/31 09:15:53;;;;;;;;;;;11.60;99.90;;;;;;5000193;28;19976;-68
2021/12/31 09:18:19;;;;;;;;;;;11.60;99.90;;;;;;5012314;28;19914;-68
2021/12/31 09:20:45;;;;;;;;;;;11.60;99.90;;;;;;5000620;28;19971;-68
2021/12/31 09:23:10;;;;;;;;;;;11.60;99.90;;;;;;5005746;28;19921;-68
2021/12/31 09:25:36;;;;;;;;;;;11.60;99.90;;;;;;4995798;28;19913;-69
2021/12/31 09:28:01;;;;;;;;;;;11.60;99.90;;;;;;5004022;28;20264;-68
2021/12/31 09:30:27;;;;;;;;;;;11.70;99.90;;;;;;5003312;28;19910;-67
2021/12/31 09:32:53;;;;;;;;;;;11.70;99.90;;;;;;5013182;28;19922;-68
2021/12/31 09:35:18;;;;;;;;;;;11.80;99.90;;;;;;5000758;28;20832;-67
2021/12/31 09:37:43;;;;;;;;;;;11.70;99.90;;;;;;5012436;28;19979;-68
2021/12/31 09:40:09;;;;;;;;;;;11.70;99.90;;;;;;5001396;28;20736;-68
2021/12/31 09:42:36;;;;;;;;;;;11.70;99.90;;;;;;5009396;28;19910;-68
2021/12/31 09:45:02;;;;;;;;;;;11.70;99.90;;;;;;5005556;28;20020;-68
2021/12/31 09:47:28;;;;;;;;;;;11.70;99.90;;;;;;5006589;28;20371;-68
2021/12/31 09:49:53;;;;;;;;;;;11.70;99.90;;;;;;5012266;28;19947;-68
2021/12/31 09:52:19;;;;;;;;;;;11.70;99.90;;;;;;4991255;28;19976;-68
2021/12/31 09:54:45;;;;;;;;;;;11.70;99.90;;;;;;5004214;28;19932;-68
2021/12/31 09:57:14;;;;;;;;;;;11.80;99.90;;;;;;5002826;28;20383;-68
2021/12/31 09:59:41;;;;;;;;;;;11.80;99.90;;;;;;5006649;28;19915;-67
2021/12/31 10:02:06;;;;;;;;;;;11.90;99.90;;;;;;5008500;28;19909;-68
2021/12/31 10:05:04;;;;;;;;;;;11.90;99.90;;;;;;4995716;28;19913;-67
2021/12/31 10:07:30;;;;;;;;;;;11.90;99.90;;;;;;4958319;28;19917;-67
2021/12/31 10:10:12;;;;;;;;;;;12.00;99.90;;;;;;4998415;28;19920;-68
2021/12/31 10:12:56;;;;;;;;;;;12.10;99.90;;;;;;5007117;28;19956;-67
2021/12/31 10:15:24;;;;;;;;;;;12.10;99.90;;;;;;5005723;28;20055;-68
2021/12/31 10:17:50;;;;;;;;;;;12.20;99.90;;;;;;5004681;28;19925;-67
2021/12/31 10:20:16;;;;;;;;;;;12.20;99.90;;;;;;5004916;28;19917;-67
2021/12/31 10:22:41;;;;;;;;;;;12.30;99.90;;;;;;4989115;28;19913;-68
2021/12/31 10:25:15;;;;;;;;;;;12.30;99.90;;;;;;5006431;28;19975;-67
2021/12/31 10:27:40;;;;;;;;;;;12.30;99.90;;;;;;5007499;28;19909;-68
2021/12/31 10:30:07;;;;;;;;;;;12.30;99.90;;;;;;5004183;28;20399;-68
2021/12/31 10:32:33;;;;;;;;;;;12.30;99.90;;;;;;5005865;28;19917;-68
2021/12/31 10:35:08;;;;;;;;;;;12.30;99.90;;;;;;5007583;28;20330;-68
2021/12/31 10:37:40;;;;;;;;;;;12.30;99.90;;;;;;5002931;28;19940;-67
2021/12/31 10:40:06;;;;;;;;;;;12.30;99.90;;;;;;4984827;28;19917;-67
2021/12/31 10:42:33;;;;;;;;;;;12.30;99.90;;;;;;4988810;28;19959;-67
2021/12/31 10:45:00;;;;;;;;;;;12.40;99.90;;;;;;5004464;28;19917;-68
2021/12/31 10:47:30;;;;;;;;;;;12.30;99.90;;;;;;5004489;28;20008;-68
2021/12/31 10:49:55;;;;;;;;;;;12.30;99.90;;;;;;5004726;28;19913;-67
2021/12/31 10:52:25;;;;;;;;;;;12.30;99.90;;;;;;5005555;28;20407;-68
2021/12/31 10:55:01;;;;;;;;;;;12.30;99.90;;;;;;5006768;28;21005;-68
2021/12/31 10:57:38;;;;;;;;;;;12.30;99.90;;;;;;5000464;28;19905;-68
2021/12/31 11:00:04;;;;;;;;;;;12.30;99.90;;;;;;5000929;28;19913;-67
2021/12/31 11:02:31;;;;;;;;;;;12.30;99.90;;;;;;5006184;28;19910;-67
2021/12/31 11:04:58;;;;;;;;;;;12.30;99.90;;;;;;5003450;28;20005;-67
2021/12/31 11:07:23;;;;;;;;;;;12.30;99.90;;;;;;5001887;28;20376;-67
2021/12/31 11:09:49;;;;;;;;;;;12.30;99.90;;;;;;4993809;28;19921;-68
2021/12/31 11:12:14;;;;;;;;;;;12.30;99.90;;;;;;4972591;28;20207;-68
2021/12/31 11:14:40;;;;;;;;;;;12.40;99.90;;;;;;4968078;28;20293;-68
2021/12/31 11:17:06;;;;;;;;;;;12.40;99.90;;;;;;4986554;28;19913;-68
2021/12/31 11:19:32;;;;;;;;;;;12.40;99.90;;;;;;4994161;28;19917;-68
2021/12/31 11:21:57;;;;;;;;;;;12.40;99.90;;;;;;5004485;28;19909;-67
2021/12/31 11:24:34;;;;;;;;;;;12.50;99.90;;;;;;5005280;28;20387;-68
2021/12/31 11:27:19;;;;;;;;;;;12.50;99.90;;;;;;5004270;28;20012;-68
2021/12/31 11:29:45;;;;;;;;;;;12.50;99.90;;;;;;4999719;28;20004;-69
2021/12/31 11:32:10;;;;;;;;;;;12.50;99.90;;;;;;5006480;28;20000;-69
2021/12/31 11:34:37;;;;;;;;;;;12.40;99.90;;;;;;5002490;28;19963;-69
2021/12/31 11:37:03;;;;;;;;;;;12.40;99.90;;;;;;5005014;28;19964;-69
2021/12/31 11:39:35;;;;;;;;;;;12.40;99.90;;;;;;5000515;28;19909;-68
2021/12/31 11:42:03;;;;;;;;;;;12.40;99.90;;;;;;5003358;28;20385;-69
2021/12/31 11:44:29;;;;;;;;;;;12.50;99.90;;;;;;5005553;28;19922;-69
2021/12/31 11:47:13;;;;;;;;;;;12.60;99.90;;;;;;5005219;28;20410;-68
2021/12/31 11:49:39;;;;;;;;;;;12.70;99.90;;;;;;5000264;28;19925;-68
2021/12/31 11:52:12;;;;;;;;;;;12.80;99.90;;;;;;5004927;28;20260;-68
2021/12/31 11:54:38;;;;;;;;;;;12.80;99.90;;;;;;4984296;28;19917;-68
2021/12/31 11:57:04;;;;;;;;;;;12.80;99.90;;;;;;5006014;28;20295;-69
2021/12/31 11:59:31;;;;;;;;;;;12.80;99.90;;;;;;5003835;28;20004;-68
2021/12/31 12:02:15;;;;;;;;;;;12.70;99.90;;;;;;5006215;28;20387;-68
2021/12/31 12:04:41;;;;;;;;;;;12.70;99.90;;;;;;5002627;28;19920;-69
2021/12/31 12:07:10;;;;;;;;;;;12.70;99.90;;;;;;5005301;28;20059;-68
2021/12/31 12:09:35;;;;;;;;;;;12.60;99.90;;;;;;4979339;28;19910;-68
2021/12/31 12:12:02;;;;;;;;;;;12.60;99.90;;;;;;5004543;28;19925;-68
2021/12/31 12:14:37;;;;;;;;;;;12.60;99.90;;;;;;5004362;28;20257;-68
2021/12/31 12:17:03;;;;;;;;;;;12.60;99.90;;;;;;5004661;28;20426;-68
2021/12/31 12:19:48;;;;;;;;;;;12.70;99.90;;;;;;5002898;28;20444;-68
2021/12/31 12:22:25;;;;;;;;;;;12.60;99.90;;;;;;5001666;28;19967;-68
2021/12/31 12:24:51;;;;;;;;;;;12.70;99.90;;;;;;5003772;28;20332;-67
2021/12/31 12:27:17;;;;;;;;;;;12.70;99.90;;;;;;5004645;28;19963;-68
2021/12/31 12:29:44;;;;;;;;;;;12.60;99.90;;;;;;5000458;28;19925;-68
2021/12/31 12:32:10;;;;;;;;;;;12.60;99.90;;;;;;5002469;28;20450;-67
2021/12/31 12:34:36;;;;;;;;;;;12.50;99.90;;;;;;5001658;28;20008;-68
2021/12/31 12:37:02;;;;;;;;;;;12.50;99.90;;;;;;5004129;28;20008;-68
2021/12/31 12:39:27;;;;;;;;;;;12.50;99.90;;;;;;4998478;28;19920;-68
2021/12/31 12:41:53;;;;;;;;;;;12.50;99.90;;;;;;5002703;28;20415;-68
2021/12/31 12:44:20;;;;;;;;;;;12.40;99.90;;;;;;5004931;28;20012;-68
2021/12/31 12:46:58;;;;;;;;;;;12.40;99.90;;;;;;5006956;28;19964;-68
2021/12/31 12:49:24;;;;;;;;;;;12.40;99.90;;;;;;4999831;28;20284;-68
2021/12/31 12:51:50;;;;;;;;;;;12.30;99.90;;;;;;5009881;28;20273;-68
2021/12/31 12:54:21;;;;;;;;;;;12.30;99.90;;;;;;5007759;28;19910;-67
2021/12/31 12:57:00;;;;;;;;;;;12.30;99.90;;;;;;5008755;28;19940;-67
2021/12/31 12:59:26;;;;;;;;;;;12.20;99.90;;;;;;5006161;28;19909;-68
2021/12/31 13:01:52;;;;;;;;;;;12.20;99.90;;;;;;5009971;28;20383;-68
2021/12/31 13:04:18;;;;;;;;;;;12.20;99.90;;;;;;5008762;28;19921;-68
2021/12/31 13:06:58;;;;;;;;;;;12.10;99.90;;;;;;5003009;28;20288;-68
2021/12/31 13:09:28;;;;;;;;;;;12.10;99.90;;;;;;5004040;28;20004;-68
2021/12/31 13:11:59;;;;;;;;;;;12.10;99.90;;;;;;4987970;28;20272;-67
2021/12/31 13:14:30;;;;;;;;;;;12.10;99.90;;;;;;5005735;28;19910;-68
2021/12/31 13:16:57;;;;;;;;;;;12.00;99.90;;;;;;4991468;28;19917;-67
2021/12/31 13:19:33;;;;;;;;;;;12.00;99.90;;;;;;4996904;28;20294;-67
2021/12/31 13:22:01;;;;;;;;;;;12.00;99.90;;;;;;4998800;28;19910;-67
2021/12/31 13:24:28;;;;;;;;;;;11.90;99.90;;;;;;4999538;28;19913;-68
2021/12/31 13:26:55;;;;;;;;;;;11.90;99.90;;;;;;4994206;28;19963;-68
2021/12/31 13:29:37;;;;;;;;;;;11.80;99.90;;;;;;5004456;28;19960;-68
2021/12/31 13:32:04;;;;;;;;;;;11.80;99.90;;;;;;5005990;28;19943;-68
2021/12/31 13:34:37;;;;;;;;;;;11.80;99.90;;;;;;5002404;28;19931;-68
2021/12/31 13:37:04;;;;;;;;;;;11.80;99.90;;;;;;5006156;28;20004;-68
2021/12/31 13:39:31;;;;;;;;;;;11.70;99.90;;;;;;4996604;28;19937;-68
2021/12/31 13:42:03;;;;;;;;;;;11.70;99.90;;;;;;5004482;28;19916;-68
2021/12/31 13:44:33;;;;;;;;;;;11.70;99.90;;;;;;4993779;28;19929;-68
2021/12/31 13:47:25;;;;;;;;;;;11.80;99.90;;;;;;5004694;28;19956;-67
2021/12/31 13:49:55;;;;;;;;;;;11.80;99.90;;;;;;5007703;28;19940;-68
2021/12/31 13:52:22;;;;;;;;;;;11.80;99.90;;;;;;5012630;28;19910;-66
2021/12/31 13:54:48;;;;;;;;;;;11.80;99.90;;;;;;5000562;28;19917;-67
2021/12/31 13:57:18;;;;;;;;;;;11.90;99.90;;;;;;5009724;28;20073;-67
2021/12/31 13:59:43;;;;;;;;;;;11.80;99.90;;;;;;5003805;28;19913;-67
2021/12/31 14:02:09;;;;;;;;;;;11.70;99.90;;;;;;5006112;28;19910;-68
2021/12/31 14:04:55;;;;;;;;;;;11.70;99.90;;;;;;5005005;28;20292;-67
2021/12/31 14:07:21;;;;;;;;;;;11.60;99.90;;;;;;5009473;28;19916;-67
2021/12/31 14:09:48;;;;;;;;;;;11.60;99.90;;;;;;5010644;28;20295;-68
2021/12/31 14:12:14;;;;;;;;;;;11.60;99.90;;;;;;5010225;28;19921;-67
2021/12/31 14:14:42;;;;;;;;;;;11.60;99.90;;;;;;5009243;28;19909;-68
2021/12/31 14:17:09;;;;;;;;;;;11.50;99.90;;;;;;5004187;28;19909;-68
2021/12/31 14:19:34;;;;;;;;;;;11.50;99.90;;;;;;5011100;28;20422;-69
2021/12/31 14:22:00;;;;;;;;;;;11.50;99.90;;;;;;5014774;28;20016;-68
2021/12/31 14:24:26;;;;;;;;;;;11.40;99.90;;;;;;5007676;28;20354;-68
2021/12/31 14:26:51;;;;;;;;;;;11.40;99.90;;;;;;5008133;28;20145;-70
2021/12/31 14:29:18;;;;;;;;;;;11.40;99.90;;;;;;5008093;28;19913;-69
2021/12/31 14:31:44;;;;;;;;;;;11.40;99.90;;;;;;5004361;28;19933;-68
2021/12/31 14:34:09;;;;;;;;;;;11.40;99.90;;;;;;4990272;28;19936;-68
2021/12/31 14:36:51;;;;;;;;;;;11.40;99.90;;;;;;5005272;28;19914;-68
2021/12/31 14:39:19;;;;;;;;;;;11.30;99.90;;;;;;5009689;28;20000;-69
2021/12/31 14:41:44;;;;;;;;;;;11.40;99.90;;;;;;4994004;28;19955;-69
2021/12/31 14:44:11;;;;;;;;;;;11.30;99.90;;;;;;5008880;28;19914;-68
2021/12/31 14:46:37;;;;;;;;;;;11.30;99.90;;;;;;5002649;28;19949;-68
2021/12/31 14:49:03;;;;;;;;;;;11.30;99.90;;;;;;4986988;28;19948;-68
2021/12/31 14:51:28;;;;;;;;;;;11.30;99.90;;;;;;5006770;28;19910;-68